createdAt,value
2018-10-02T00:01:10.744Z,22.90
2018-10-02T00:03:39.174Z,23.00
2018-10-02T00:06:08.061Z,23.00
2018-10-02T00:08:36.449Z,23.00
2018-10-02T00:11:10.233Z,23.00
2018-10-02T00:13:44.093Z,23.00
2018-10-02T00:16:12.539Z,23.10
2018-10-02T00:18:40.939Z,23.10
2018-10-02T00:21:09.574Z,23.10
2018-10-02T00:23:37.940Z,23.10
2018-10-02T00:26:06.677Z,23.10
2018-10-02T00:28:35.205Z,23.10
2018-10-02T00:31:03.700Z,23.10
2018-10-02T00:33:32.133Z,23.10
2018-10-02T00:36:00.547Z,23.10
2018-10-02T00:38:29.000Z,23.20
2018-10-02T00:40:57.580Z,23.10
2018-10-02T00:43:26.030Z,23.20
2018-10-02T00:45:54.619Z,23.20
2018-10-02T00:48:23.020Z,23.20
2018-10-02T00:50:51.474Z,23.20
2018-10-02T00:53:19.869Z,23.20
2018-10-02T00:55:48.290Z,23.20
2018-10-02T00:58:16.803Z,23.20
2018-10-02T01:00:45.189Z,23.20
2018-10-02T01:03:13.675Z,23.20
2018-10-02T01:05:42.215Z,23.20
2018-10-02T01:08:10.779Z,23.20
2018-10-02T01:10:39.304Z,23.20
2018-10-02T01:13:07.993Z,23.20
2018-10-02T01:15:36.437Z,23.20
2018-10-02T01:18:04.888Z,23.20
2018-10-02T01:20:33.393Z,23.30
2018-10-02T01:23:01.774Z,23.20
2018-10-02T01:25:30.240Z,23.20
2018-10-02T01:27:58.613Z,23.20
2018-10-02T01:30:26.990Z,23.30
2018-10-02T01:32:55.474Z,23.30
2018-10-02T01:35:23.981Z,23.30
2018-10-02T01:37:52.536Z,23.20
2018-10-02T01:40:20.966Z,23.20
2018-10-02T01:42:49.350Z,23.30
2018-10-02T01:45:17.702Z,23.30
2018-10-02T01:47:46.288Z,23.30
2018-10-02T01:50:14.702Z,23.30
2018-10-02T01:52:43.184Z,23.20
2018-10-02T01:55:11.746Z,23.30
2018-10-02T01:57:40.173Z,23.30
2018-10-02T02:00:08.580Z,23.30
2018-10-02T02:02:37.311Z,23.30
2018-10-02T02:05:06.313Z,23.20
2018-10-02T02:07:34.752Z,23.20
2018-10-02T02:10:03.347Z,23.30
2018-10-02T02:12:32.007Z,23.30
2018-10-02T02:15:00.520Z,23.20
2018-10-02T02:17:28.923Z,23.20
2018-10-02T02:19:57.528Z,23.20
2018-10-02T02:22:26.032Z,23.20
2018-10-02T02:24:54.441Z,23.20
2018-10-02T02:27:22.870Z,23.20
2018-10-02T02:29:51.718Z,23.30
2018-10-02T02:32:20.520Z,23.20
2018-10-02T02:34:49.036Z,23.20
2018-10-02T02:37:17.563Z,23.20
2018-10-02T02:39:46.148Z,23.20
2018-10-02T02:42:14.522Z,23.20
2018-10-02T02:44:42.891Z,23.20
2018-10-02T02:47:16.720Z,23.20
2018-10-02T02:49:50.432Z,23.20
2018-10-02T02:52:21.090Z,23.30
2018-10-02T02:54:49.653Z,23.20
2018-10-02T02:57:18.055Z,23.30
2018-10-02T02:59:46.556Z,23.20
2018-10-02T03:02:15.052Z,23.30
2018-10-02T03:04:43.544Z,23.20
2018-10-02T03:07:12.106Z,23.20
2018-10-02T03:09:40.561Z,23.20
2018-10-02T03:12:08.979Z,23.30
2018-10-02T03:14:37.501Z,23.20
2018-10-02T03:17:05.897Z,23.20
2018-10-02T03:19:34.379Z,23.20
2018-10-02T03:22:02.801Z,23.20
2018-10-02T03:24:31.309Z,23.20
2018-10-02T03:26:59.685Z,23.20
2018-10-02T03:29:28.045Z,23.30
2018-10-02T03:31:56.421Z,23.20
2018-10-02T03:34:25.867Z,23.30
2018-10-02T03:36:54.519Z,23.20
2018-10-02T03:39:23.113Z,23.30
2018-10-02T03:41:51.575Z,23.30
2018-10-02T03:44:19.992Z,23.30
2018-10-02T03:46:48.429Z,23.20
2018-10-02T03:49:16.907Z,23.20
2018-10-02T03:51:45.311Z,23.20
2018-10-02T03:54:13.960Z,23.20
2018-10-02T03:56:42.697Z,23.30
2018-10-02T03:59:11.117Z,23.20
2018-10-02T04:01:39.497Z,23.20
2018-10-02T04:04:07.993Z,23.20
2018-10-02T04:06:36.467Z,23.20
2018-10-02T04:09:08.357Z,23.20
2018-10-02T04:11:36.829Z,23.20
2018-10-02T04:14:05.633Z,23.20
2018-10-02T04:16:34.015Z,23.20
2018-10-02T04:19:02.461Z,23.20
2018-10-02T04:21:34.160Z,23.20
2018-10-02T04:24:03.832Z,23.20
2018-10-02T04:26:32.598Z,23.20
2018-10-02T04:29:01.425Z,23.20
2018-10-02T04:31:29.911Z,23.20
2018-10-02T04:33:58.384Z,23.20
2018-10-02T04:36:26.976Z,23.20
2018-10-02T04:38:55.640Z,23.20
2018-10-02T04:41:24.274Z,23.20
2018-10-02T04:43:52.932Z,23.20
2018-10-02T04:46:21.307Z,23.20
2018-10-02T04:48:49.771Z,23.20
2018-10-02T04:51:18.197Z,23.20
2018-10-02T04:53:46.669Z,23.20
2018-10-02T04:56:15.101Z,23.20
2018-10-02T04:58:43.451Z,23.20
2018-10-02T05:01:11.878Z,23.20
2018-10-02T05:03:40.314Z,23.20
2018-10-02T05:06:08.754Z,23.20
2018-10-02T05:08:37.233Z,23.20
2018-10-02T05:11:05.769Z,23.20
2018-10-02T05:13:34.270Z,23.20
2018-10-02T05:16:02.673Z,23.20
2018-10-02T05:18:31.281Z,23.20
2018-10-02T05:20:59.706Z,23.20
2018-10-02T05:23:28.279Z,23.20
2018-10-02T05:25:56.658Z,23.20
2018-10-02T05:28:25.162Z,23.30
2018-10-02T05:30:53.618Z,23.30
2018-10-02T05:33:22.140Z,23.40
2018-10-02T05:35:50.538Z,23.40
2018-10-02T05:38:18.977Z,23.40
2018-10-02T05:40:47.345Z,23.40
2018-10-02T05:43:15.952Z,23.40
2018-10-02T05:45:44.572Z,23.40
2018-10-02T05:48:13.092Z,23.40
2018-10-02T05:50:41.829Z,23.40
2018-10-02T05:53:10.222Z,23.40
2018-10-02T05:55:38.671Z,23.40
2018-10-02T05:58:07.222Z,23.40
2018-10-02T06:00:35.602Z,23.40
2018-10-02T06:03:03.985Z,23.40
2018-10-02T06:05:32.434Z,23.40
2018-10-02T06:08:00.858Z,23.30
2018-10-02T06:10:29.270Z,23.30
2018-10-02T06:12:57.694Z,23.40
2018-10-02T06:15:26.144Z,23.30
2018-10-02T06:17:54.608Z,23.30
2018-10-02T06:20:23.064Z,23.30
2018-10-02T06:22:51.738Z,23.20
2018-10-02T06:25:20.177Z,23.20
2018-10-02T06:27:48.539Z,23.10
2018-10-02T06:30:16.956Z,23.20
2018-10-02T06:32:45.346Z,23.20
2018-10-02T06:35:13.712Z,23.20
2018-10-02T06:37:42.114Z,23.10
2018-10-02T06:40:10.574Z,23.10
2018-10-02T06:42:38.915Z,23.10
2018-10-02T06:45:08.303Z,23.10
2018-10-02T06:47:36.604Z,23.00
2018-10-02T06:50:04.992Z,23.10
2018-10-02T06:52:33.650Z,23.00
2018-10-02T06:55:01.789Z,23.00
2018-10-02T06:57:30.189Z,23.00
2018-10-02T06:59:58.730Z,23.00
2018-10-02T07:02:27.165Z,23.00
2018-10-02T07:04:55.589Z,23.10
2018-10-02T07:07:24.086Z,23.10
2018-10-02T07:09:52.629Z,23.10
2018-10-02T07:12:21.154Z,23.10
2018-10-02T07:14:49.576Z,23.10
2018-10-02T07:17:18.021Z,23.20
2018-10-02T07:19:46.346Z,23.20
2018-10-02T07:22:14.734Z,23.20
2018-10-02T07:24:43.102Z,23.20
2018-10-02T07:27:11.583Z,23.20
2018-10-02T07:29:40.061Z,23.30
2018-10-02T07:32:08.576Z,23.30
2018-10-02T07:34:37.023Z,23.30
2018-10-02T07:37:05.749Z,23.30
2018-10-02T07:39:34.090Z,23.30
2018-10-02T07:42:02.545Z,23.30
2018-10-02T07:44:30.891Z,23.40
2018-10-02T07:46:59.283Z,23.40
2018-10-02T07:49:27.665Z,23.40
2018-10-02T07:51:56.090Z,23.40
2018-10-02T07:54:24.493Z,23.40
2018-10-02T07:56:52.883Z,23.40
2018-10-02T07:59:21.433Z,23.40
2018-10-02T08:01:49.943Z,23.40
2018-10-02T08:04:18.348Z,23.40
2018-10-02T08:06:46.712Z,23.40
2018-10-02T08:09:15.091Z,23.50
2018-10-02T08:11:43.585Z,23.40
2018-10-02T08:14:11.985Z,23.40
2018-10-02T08:16:40.398Z,23.40
2018-10-02T08:19:08.832Z,23.50
2018-10-02T08:21:37.532Z,23.50
2018-10-02T08:24:06.004Z,23.50
2018-10-02T08:26:34.358Z,23.50
2018-10-02T08:29:02.710Z,23.50
2018-10-02T08:31:31.091Z,23.50
2018-10-02T08:33:59.746Z,23.40
2018-10-02T08:36:28.273Z,23.40
2018-10-02T08:38:56.695Z,23.40
2018-10-02T08:41:25.019Z,23.40
2018-10-02T08:43:53.442Z,23.40
2018-10-02T08:46:21.786Z,23.40
2018-10-02T08:48:50.345Z,23.40
2018-10-02T08:51:18.712Z,23.40
2018-10-02T08:53:47.123Z,23.40
2018-10-02T08:56:15.562Z,23.40
2018-10-02T08:58:43.884Z,23.40
2018-10-02T09:01:12.315Z,23.50
2018-10-02T09:03:40.699Z,23.50
2018-10-02T09:06:09.091Z,23.50
2018-10-02T09:08:37.461Z,23.50
2018-10-02T09:11:05.975Z,23.50
2018-10-02T09:13:34.509Z,23.50
2018-10-02T09:16:02.961Z,23.50
2018-10-02T09:18:31.540Z,23.50
2018-10-02T09:20:59.797Z,23.50
2018-10-02T09:23:28.195Z,23.50
2018-10-02T09:25:56.514Z,23.50
2018-10-02T09:28:25.105Z,23.50
2018-10-02T09:30:59.099Z,23.50
2018-10-02T09:33:32.716Z,23.50
2018-10-02T09:36:06.337Z,23.50
2018-10-02T09:38:40.063Z,23.50
2018-10-02T09:41:13.929Z,23.50
2018-10-02T09:43:48.598Z,23.50
2018-10-02T09:46:16.923Z,23.50
2018-10-02T09:48:45.293Z,23.60
2018-10-02T09:51:13.753Z,23.50
2018-10-02T09:53:42.183Z,23.50
2018-10-02T09:56:10.838Z,23.50
2018-10-02T09:58:39.291Z,23.50
2018-10-02T10:01:12.918Z,23.50
2018-10-02T10:03:41.304Z,23.60
2018-10-02T10:06:09.678Z,23.60
2018-10-02T10:08:38.010Z,23.60
2018-10-02T10:11:06.490Z,23.60
2018-10-02T10:13:35.512Z,23.60
2018-10-02T10:16:04.414Z,23.60
2018-10-02T10:18:32.777Z,23.60
2018-10-02T10:21:01.231Z,23.60
2018-10-02T10:23:29.713Z,23.50
2018-10-02T10:25:58.109Z,23.50
2018-10-02T10:28:26.662Z,23.50
2018-10-02T10:30:55.106Z,23.50
2018-10-02T10:33:23.579Z,23.50
2018-10-02T10:35:51.913Z,23.50
2018-10-02T10:38:20.296Z,23.60
2018-10-02T10:40:48.676Z,23.60
2018-10-02T10:43:17.155Z,23.60
2018-10-02T10:45:45.679Z,23.60
2018-10-02T10:48:14.172Z,23.60
2018-10-02T10:50:42.613Z,23.50
2018-10-02T10:53:11.090Z,23.50
2018-10-02T10:55:39.598Z,23.50
2018-10-02T10:58:07.963Z,23.50
2018-10-02T11:00:36.381Z,23.50
2018-10-02T11:03:04.796Z,23.50
2018-10-02T11:05:33.319Z,23.50
2018-10-02T11:08:01.733Z,23.50
2018-10-02T11:10:30.208Z,23.50
2018-10-02T11:12:58.725Z,23.60
2018-10-02T11:15:29.114Z,23.50
2018-10-02T11:17:57.468Z,23.50
2018-10-02T11:20:28.338Z,23.50
2018-10-02T11:22:56.907Z,23.50
2018-10-02T11:25:25.331Z,23.50
2018-10-02T11:27:53.796Z,23.50
2018-10-02T11:30:22.159Z,23.50
2018-10-02T11:32:50.604Z,23.50
2018-10-02T11:35:19.366Z,23.50
2018-10-02T11:37:47.822Z,23.50
2018-10-02T11:40:16.556Z,23.50
2018-10-02T11:42:45.090Z,23.50
2018-10-02T11:45:13.450Z,23.50
2018-10-02T11:47:41.838Z,23.50
2018-10-02T11:50:10.200Z,23.50
2018-10-02T11:52:38.724Z,23.50
2018-10-02T11:55:07.104Z,23.50
2018-10-02T11:57:35.571Z,23.40
2018-10-02T12:00:04.506Z,23.40
2018-10-02T12:02:32.996Z,23.40
2018-10-02T12:05:01.503Z,23.40
2018-10-02T12:07:29.869Z,23.40
2018-10-02T12:09:58.310Z,23.40
2018-10-02T12:12:26.654Z,23.40
2018-10-02T12:14:55.121Z,23.40
2018-10-02T12:17:23.452Z,23.40
2018-10-02T12:19:52.397Z,23.40
2018-10-02T12:22:20.576Z,23.40
2018-10-02T12:24:49.020Z,23.40
2018-10-02T12:27:17.533Z,23.40
2018-10-02T12:29:45.911Z,23.40
2018-10-02T12:32:16.435Z,23.40
2018-10-02T12:34:44.844Z,23.40
2018-10-02T12:37:13.256Z,23.40
2018-10-02T12:39:41.815Z,23.40
2018-10-02T12:42:11.134Z,23.40
2018-10-02T12:44:40.000Z,23.40
2018-10-02T12:47:08.428Z,23.40
2018-10-02T12:49:36.758Z,23.40
2018-10-02T12:52:05.262Z,23.50
2018-10-02T12:54:33.683Z,23.50
2018-10-02T12:57:02.139Z,23.50
2018-10-02T12:59:30.703Z,23.50
2018-10-02T13:01:58.997Z,23.50
2018-10-02T13:04:27.477Z,23.50
2018-10-02T13:06:55.909Z,23.60
2018-10-02T13:09:24.396Z,23.50
2018-10-02T13:11:52.958Z,23.50
2018-10-02T13:14:21.478Z,23.50
2018-10-02T13:16:49.969Z,23.50
2018-10-02T13:19:18.362Z,23.50
2018-10-02T13:21:46.730Z,23.50
2018-10-02T13:24:15.228Z,23.50
2018-10-02T13:26:43.949Z,23.50
2018-10-02T13:29:12.355Z,23.50
2018-10-02T13:31:40.805Z,23.50
2018-10-02T13:34:09.168Z,23.50
2018-10-02T13:36:37.588Z,23.40
2018-10-02T13:39:07.766Z,23.50
2018-10-02T13:41:36.160Z,23.40
2018-10-02T13:44:04.564Z,23.50
2018-10-02T13:46:33.050Z,23.50
2018-10-02T13:49:01.433Z,23.40
2018-10-02T13:51:29.885Z,23.40
2018-10-02T13:53:58.285Z,23.40
2018-10-02T13:56:26.634Z,23.50
2018-10-02T13:58:55.122Z,23.50
2018-10-02T14:01:23.654Z,23.40
2018-10-02T14:03:52.179Z,23.40
2018-10-02T14:06:20.591Z,23.50
2018-10-02T14:08:49.033Z,23.50
2018-10-02T14:11:17.414Z,23.50
2018-10-02T14:13:45.797Z,23.50
2018-10-02T14:16:14.334Z,23.50
2018-10-02T14:18:42.899Z,23.50
2018-10-02T14:21:11.335Z,23.50
2018-10-02T14:23:39.783Z,23.50
2018-10-02T14:26:08.220Z,23.50
2018-10-02T14:28:36.571Z,23.50
2018-10-02T14:31:05.026Z,23.50
2018-10-02T14:33:33.480Z,23.50
2018-10-02T14:36:05.306Z,23.50
2018-10-02T14:38:33.743Z,23.50
2018-10-02T14:41:02.128Z,23.50
2018-10-02T14:43:30.525Z,23.50
2018-10-02T14:45:58.946Z,23.50
2018-10-02T14:48:27.473Z,23.50
2018-10-02T14:50:55.889Z,23.50
2018-10-02T14:53:24.356Z,23.50
2018-10-02T14:55:52.697Z,23.50
2018-10-02T14:58:21.226Z,23.50
2018-10-02T15:00:49.627Z,23.40
2018-10-02T15:03:18.136Z,23.50
2018-10-02T15:05:46.530Z,23.50
2018-10-02T15:08:15.043Z,23.50
2018-10-02T15:10:43.469Z,23.50
2018-10-02T15:13:11.829Z,23.50
2018-10-02T15:15:40.192Z,23.50
2018-10-02T15:18:08.640Z,23.50
2018-10-02T15:20:37.045Z,23.50
2018-10-02T15:23:05.444Z,23.50
2018-10-02T15:25:33.920Z,23.50
2018-10-02T15:28:02.473Z,23.50
2018-10-02T15:30:30.897Z,23.50
2018-10-02T15:32:59.278Z,23.50
2018-10-02T15:35:27.651Z,23.50
2018-10-02T15:37:56.207Z,23.50
2018-10-02T15:40:24.527Z,23.50
2018-10-02T15:42:53.096Z,23.50
2018-10-02T15:45:21.495Z,23.50
2018-10-02T15:47:49.875Z,23.50
2018-10-02T15:50:18.237Z,23.50
2018-10-02T15:52:46.701Z,23.50
2018-10-02T15:55:15.078Z,23.50
2018-10-02T15:57:43.767Z,23.50
2018-10-02T16:00:12.228Z,23.40
2018-10-02T16:02:40.731Z,23.50
2018-10-02T16:05:09.321Z,23.50
2018-10-02T16:07:37.926Z,23.50
2018-10-02T16:10:06.400Z,23.50
2018-10-02T16:12:34.898Z,23.60
2018-10-02T16:15:03.336Z,23.60
2018-10-02T16:17:31.717Z,23.70
2018-10-02T16:20:00.203Z,23.70
2018-10-02T16:22:28.741Z,23.80
2018-10-02T16:24:57.393Z,23.80
2018-10-02T16:27:25.723Z,23.90
2018-10-02T16:29:54.371Z,24.00
2018-10-02T16:32:22.983Z,23.90
2018-10-02T16:34:51.384Z,23.90
2018-10-02T16:37:19.826Z,23.90
2018-10-02T16:39:48.383Z,23.90
2018-10-02T16:42:16.926Z,23.90
2018-10-02T16:44:45.398Z,23.90
2018-10-02T16:47:13.858Z,23.90
2018-10-02T16:49:42.262Z,23.90
2018-10-02T16:52:10.785Z,24.00
2018-10-02T16:54:39.381Z,24.00
2018-10-02T16:57:07.699Z,24.00
2018-10-02T16:59:36.117Z,23.90
2018-10-02T17:02:04.661Z,23.90
2018-10-02T17:04:33.045Z,23.90
2018-10-02T17:07:01.482Z,23.90
2018-10-02T17:09:30.048Z,23.90
2018-10-02T17:11:58.532Z,23.80
2018-10-02T17:14:26.997Z,23.80
2018-10-02T17:16:55.418Z,23.70
2018-10-02T17:19:23.942Z,23.70
2018-10-02T17:21:52.365Z,23.70
2018-10-02T17:24:20.787Z,23.80
2018-10-02T17:26:49.184Z,23.70
2018-10-02T17:29:17.616Z,23.70
2018-10-02T17:31:46.056Z,23.80
2018-10-02T17:34:14.545Z,23.70
2018-10-02T17:36:42.906Z,23.70
2018-10-02T17:39:12.134Z,23.80
2018-10-02T17:41:40.655Z,23.80
2018-10-02T17:44:09.083Z,23.80
2018-10-02T17:46:37.690Z,23.80
2018-10-02T17:49:06.561Z,23.80
2018-10-02T17:51:34.981Z,23.80
2018-10-02T17:54:03.384Z,23.80
2018-10-02T17:56:32.305Z,23.80
2018-10-02T17:59:00.946Z,23.80
2018-10-02T18:01:29.469Z,23.80
2018-10-02T18:03:57.799Z,23.80
2018-10-02T18:06:26.470Z,23.80
2018-10-02T18:08:54.890Z,23.80
2018-10-02T18:11:23.305Z,23.80
2018-10-02T18:13:51.693Z,23.70
2018-10-02T18:16:20.084Z,23.70
2018-10-02T18:18:48.436Z,23.70
2018-10-02T18:21:17.003Z,23.70
2018-10-02T18:23:45.391Z,23.70
2018-10-02T18:26:13.818Z,23.70
2018-10-02T18:28:42.166Z,23.60
2018-10-02T18:31:10.678Z,23.60
2018-10-02T18:33:39.168Z,23.50
2018-10-02T18:36:07.507Z,23.50
2018-10-02T18:38:36.277Z,23.50
2018-10-02T18:41:04.931Z,23.50
2018-10-02T18:43:33.361Z,23.40
2018-10-02T18:46:02.105Z,23.40
2018-10-02T18:48:30.511Z,23.40
2018-10-02T18:50:59.082Z,23.40
2018-10-02T18:53:27.493Z,23.30
2018-10-02T18:55:55.853Z,23.40
2018-10-02T18:58:24.341Z,23.40
2018-10-02T19:00:52.818Z,23.40
2018-10-02T19:03:21.237Z,23.40
2018-10-02T19:05:49.638Z,23.40
2018-10-02T19:08:22.335Z,23.50
2018-10-02T19:10:50.837Z,23.50
2018-10-02T19:13:19.402Z,23.50
2018-10-02T19:16:56.044Z,23.50
2018-10-02T19:19:30.251Z,23.50
2018-10-02T19:21:58.708Z,23.50
2018-10-02T19:24:27.213Z,23.60
2018-10-02T19:26:55.596Z,23.50
2018-10-02T19:29:24.068Z,23.60
2018-10-02T19:31:59.834Z,23.50
2018-10-02T19:34:28.278Z,23.60
2018-10-02T19:36:56.702Z,23.50
2018-10-02T19:39:27.667Z,23.60
2018-10-02T19:41:56.629Z,23.60
2018-10-02T19:44:25.055Z,23.50
2018-10-02T19:46:55.394Z,23.60
2018-10-02T19:49:28.391Z,23.60
2018-10-02T19:52:00.092Z,23.60
2018-10-02T19:54:28.520Z,23.60
2018-10-02T19:56:57.242Z,23.60
2018-10-02T19:59:25.680Z,23.60
2018-10-02T20:01:54.078Z,23.50
2018-10-02T20:04:22.499Z,23.60
2018-10-02T20:06:50.878Z,23.60
2018-10-02T20:09:19.238Z,23.60
2018-10-02T20:11:47.669Z,23.60
2018-10-02T20:14:16.109Z,23.60
2018-10-02T20:16:44.482Z,23.60
2018-10-02T20:19:12.944Z,23.60
2018-10-02T20:21:41.349Z,23.60
2018-10-02T20:24:09.846Z,23.70
2018-10-02T20:26:38.234Z,23.70
2018-10-02T20:29:06.663Z,23.70
2018-10-02T20:31:37.447Z,23.70
2018-10-02T20:34:05.866Z,23.70
2018-10-02T20:36:34.301Z,23.70
2018-10-02T20:39:02.731Z,23.70
2018-10-02T20:41:31.136Z,23.70
2018-10-02T20:43:59.693Z,23.70
2018-10-02T20:46:28.191Z,23.70
2018-10-02T20:48:56.750Z,23.60
2018-10-02T20:51:25.117Z,23.70
2018-10-02T20:53:53.747Z,23.70
2018-10-02T20:56:22.202Z,23.70
2018-10-02T20:58:50.638Z,23.70
2018-10-02T21:01:19.061Z,23.70
2018-10-02T21:03:47.603Z,23.70
2018-10-02T21:06:16.009Z,23.70
2018-10-02T21:08:44.427Z,23.70
2018-10-02T21:11:12.826Z,23.70
2018-10-02T21:13:41.316Z,23.70
2018-10-02T21:16:09.804Z,23.70
2018-10-02T21:18:38.277Z,23.70
2018-10-02T21:21:06.849Z,23.50
2018-10-02T21:23:36.273Z,23.30
2018-10-02T21:26:04.790Z,23.20
2018-10-02T21:28:33.386Z,23.10
2018-10-02T21:31:01.875Z,22.90
2018-10-02T21:33:30.342Z,22.80
2018-10-02T21:35:58.733Z,22.80
2018-10-02T21:38:27.049Z,22.80
2018-10-02T21:40:55.637Z,22.80
2018-10-02T21:43:24.129Z,22.70
2018-10-02T21:45:52.541Z,22.60
2018-10-02T21:48:21.064Z,22.60
2018-10-02T21:50:49.486Z,22.60
2018-10-02T21:53:17.994Z,22.50
2018-10-02T21:55:46.459Z,22.60
2018-10-02T21:58:14.891Z,22.60
2018-10-02T22:00:43.283Z,22.50
2018-10-02T22:03:11.691Z,22.50
2018-10-02T22:05:40.141Z,22.40
2018-10-02T22:08:08.734Z,22.50
2018-10-02T22:10:37.207Z,22.50
2018-10-02T22:13:06.239Z,22.50
2018-10-02T22:15:34.681Z,22.50
2018-10-02T22:18:03.063Z,22.40
2018-10-02T22:20:31.571Z,22.40
2018-10-02T22:23:00.027Z,22.40
2018-10-02T22:25:28.575Z,22.50
2018-10-02T22:27:56.909Z,22.50
2018-10-02T22:30:25.371Z,22.40
2018-10-02T22:32:53.833Z,22.40
2018-10-02T22:35:22.380Z,22.40
2018-10-02T22:37:50.857Z,22.30
2018-10-02T22:40:19.305Z,22.30
2018-10-02T22:42:47.764Z,22.30
2018-10-02T22:45:16.267Z,22.30
2018-10-02T22:47:44.841Z,22.30
2018-10-02T22:50:13.403Z,22.30
2018-10-02T22:52:42.068Z,22.40
2018-10-02T22:55:10.583Z,22.60
2018-10-02T22:57:39.351Z,22.70
2018-10-02T23:00:07.746Z,22.70
2018-10-02T23:02:36.120Z,22.80
2018-10-02T23:05:04.849Z,22.90
2018-10-02T23:07:33.342Z,22.90
2018-10-02T23:10:01.909Z,22.90
2018-10-02T23:12:30.293Z,22.90
2018-10-02T23:14:58.879Z,23.00
2018-10-02T23:17:27.373Z,23.00
2018-10-02T23:19:55.743Z,23.00
2018-10-02T23:22:24.223Z,23.10
2018-10-02T23:24:52.815Z,23.10
2018-10-02T23:27:21.302Z,23.10
2018-10-02T23:29:49.738Z,23.10
2018-10-02T23:32:18.172Z,23.10
2018-10-02T23:34:46.622Z,23.20
2018-10-02T23:37:15.169Z,23.20
2018-10-02T23:39:43.604Z,23.20
2018-10-02T23:42:11.993Z,23.20
2018-10-02T23:44:40.411Z,23.20
2018-10-02T23:47:08.868Z,23.20
2018-10-02T23:49:37.341Z,23.20
2018-10-02T23:52:05.924Z,23.20
2018-10-02T23:54:34.366Z,23.20
2018-10-02T23:57:02.729Z,23.20
2018-10-02T23:59:31.111Z,23.20
